createdAt,value
2023-03-07T00:04:13.361Z,100.00
2023-03-07T00:09:34.976Z,100.00
2023-03-07T00:14:38.566Z,100.00
2023-03-07T00:19:44.793Z,100.00
2023-03-07T00:24:49.366Z,100.00
2023-03-07T00:29:52.645Z,100.00
2023-03-07T00:34:57.345Z,100.00
2023-03-07T00:40:00.501Z,100.00
2023-03-07T00:45:04.317Z,100.00
2023-03-07T00:50:09.876Z,100.00
2023-03-07T00:55:13.268Z,100.00
2023-03-07T01:00:16.677Z,100.00
2023-03-07T01:05:21.295Z,100.00
2023-03-07T01:10:26.037Z,100.00
2023-03-07T01:15:29.451Z,100.00
2023-03-07T01:20:35.759Z,100.00
2023-03-07T01:25:39.739Z,100.00
2023-03-07T01:30:43.025Z,100.00
2023-03-07T01:35:48.022Z,100.00
2023-03-07T01:40:51.449Z,100.00
2023-03-07T01:46:53.423Z,100.00
2023-03-07T01:52:04.388Z,100.00
2023-03-07T01:57:07.983Z,100.00
2023-03-07T02:02:14.632Z,100.00
2023-03-07T02:07:24.335Z,100.00
2023-03-07T02:12:27.792Z,100.00
2023-03-07T02:17:33.932Z,100.00
2023-03-07T02:22:41.607Z,100.00
2023-03-07T02:27:48.661Z,100.00
2023-03-07T02:32:51.942Z,100.00
2023-03-07T02:37:58.899Z,100.00
2023-03-07T02:43:10.331Z,100.00
2023-03-07T02:48:14.258Z,100.00
2023-03-07T02:53:18.507Z,100.00
2023-03-07T02:58:23.238Z,100.00
2023-03-07T03:03:26.322Z,100.00
2023-03-07T03:08:29.495Z,100.00
2023-03-07T03:13:34.574Z,99.69
2023-03-07T03:18:39.415Z,98.81
2023-03-07T03:23:42.544Z,98.35
2023-03-07T03:28:47.054Z,97.39
2023-03-07T03:33:52.646Z,96.70
2023-03-07T03:38:58.061Z,96.02
2023-03-07T03:44:02.741Z,94.97
2023-03-07T03:49:06.590Z,94.67
2023-03-07T03:54:09.874Z,92.79
2023-03-07T03:59:14.594Z,93.30
2023-03-07T04:04:17.941Z,92.61
2023-03-07T04:09:21.052Z,91.62
2023-03-07T04:14:25.588Z,91.56
2023-03-07T04:19:29.562Z,91.17
2023-03-07T04:24:32.823Z,90.95
2023-03-07T04:29:37.518Z,89.78
2023-03-07T04:34:40.974Z,89.63
2023-03-07T04:39:44.389Z,89.35
2023-03-07T04:44:49.020Z,88.84
2023-03-07T04:49:52.922Z,89.02
2023-03-07T04:54:56.231Z,88.61
2023-03-07T05:00:01.438Z,88.65
2023-03-07T05:05:05.600Z,88.99
2023-03-07T05:10:10.102Z,88.03
2023-03-07T05:15:14.880Z,88.60
2023-03-07T05:20:19.092Z,88.65
2023-03-07T05:25:22.299Z,88.93
2023-03-07T05:30:27.202Z,89.00
2023-03-07T05:35:30.417Z,88.93
2023-03-07T05:40:33.629Z,88.99
2023-03-07T05:45:38.899Z,89.77
2023-03-07T05:50:42.746Z,90.05
2023-03-07T05:55:46.127Z,90.47
2023-03-07T06:00:52.219Z,90.30
2023-03-07T06:05:55.843Z,91.26
2023-03-07T06:10:59.056Z,91.26
2023-03-07T06:16:03.970Z,90.74
2023-03-07T06:21:11.256Z,90.77
2023-03-07T06:26:15.276Z,90.91
2023-03-07T06:31:21.491Z,91.07
2023-03-07T06:36:24.833Z,90.96
2023-03-07T06:41:28.264Z,91.62
2023-03-07T06:46:36.692Z,91.72
2023-03-07T06:51:43.286Z,91.65
2023-03-07T06:56:46.878Z,91.72
2023-03-07T07:01:51.482Z,91.16
2023-03-07T07:06:58.392Z,91.30
2023-03-07T07:12:01.930Z,91.25
2023-03-07T07:17:06.787Z,90.93
2023-03-07T07:22:12.145Z,91.45
2023-03-07T07:27:15.308Z,91.29
2023-03-07T07:32:20.205Z,91.03
2023-03-07T07:37:24.204Z,90.31
2023-03-07T07:42:28.786Z,90.00
2023-03-07T07:47:37.545Z,89.40
2023-03-07T07:52:44.715Z,89.05
2023-03-07T07:57:48.010Z,88.22
2023-03-07T08:02:53.136Z,87.94
2023-03-07T08:07:57.536Z,87.06
2023-03-07T08:13:00.631Z,87.20
2023-03-07T08:18:05.150Z,85.90
2023-03-07T08:23:09.423Z,85.67
2023-03-07T08:28:12.850Z,85.69
2023-03-07T08:33:17.632Z,85.45
2023-03-07T08:38:21.619Z,85.02
2023-03-07T08:43:25.562Z,84.36
2023-03-07T08:48:30.251Z,83.81
2023-03-07T08:53:33.574Z,82.60
2023-03-07T08:58:38.429Z,83.62
2023-03-07T09:03:44.299Z,83.25
2023-03-07T09:08:48.269Z,83.17
2023-03-07T09:13:53.252Z,82.07
2023-03-07T09:18:58.061Z,81.81
2023-03-07T09:24:01.256Z,81.20
2023-03-07T09:29:05.891Z,81.15
2023-03-07T09:34:10.799Z,80.73
2023-03-07T09:39:14.678Z,80.19
2023-03-07T09:44:42.813Z,79.22
2023-03-07T09:49:50.145Z,78.69
2023-03-07T09:55:00.059Z,79.19
2023-03-07T10:00:12.353Z,79.36
2023-03-07T10:05:30.052Z,79.08
2023-03-07T10:10:39.967Z,79.22
2023-03-07T10:15:47.383Z,79.24
2023-03-07T10:20:58.215Z,79.22
2023-03-07T10:26:09.854Z,79.68
2023-03-07T10:31:17.519Z,79.13
2023-03-07T10:36:24.300Z,77.99
2023-03-07T10:41:28.370Z,78.18
2023-03-07T10:46:38.058Z,78.31
2023-03-07T10:52:02.412Z,79.08
2023-03-07T10:57:09.050Z,80.27
2023-03-07T11:02:32.928Z,80.64
2023-03-07T11:07:38.581Z,80.06
2023-03-07T11:12:47.188Z,80.66
2023-03-07T11:17:50.812Z,79.49
2023-03-07T11:23:18.673Z,78.64
2023-03-07T11:28:31.090Z,76.72
2023-03-07T11:33:58.506Z,75.79
2023-03-07T11:39:14.153Z,74.54
2023-03-07T11:44:32.346Z,74.57
2023-03-07T11:49:46.138Z,75.00
2023-03-07T11:55:03.018Z,73.75
2023-03-07T12:00:49.217Z,73.51
2023-03-07T12:06:33.204Z,73.27
2023-03-07T12:11:58.158Z,73.36
2023-03-07T12:17:12.810Z,74.09
2023-03-07T12:22:29.522Z,73.76
2023-03-07T12:27:43.065Z,73.44
2023-03-07T12:32:47.613Z,72.46
2023-03-07T12:37:55.707Z,72.32
2023-03-07T12:43:12.176Z,71.26
2023-03-07T12:48:22.387Z,70.53
2023-03-07T12:53:40.597Z,71.03
2023-03-07T12:58:51.076Z,70.86
2023-03-07T13:04:01.766Z,69.99
2023-03-07T13:09:05.360Z,69.11
2023-03-07T13:14:34.024Z,67.56
2023-03-07T13:19:53.073Z,67.95
2023-03-07T13:24:57.543Z,68.40
2023-03-07T13:30:18.352Z,67.21
2023-03-07T13:35:56.684Z,67.84
2023-03-07T13:41:01.714Z,67.91
2023-03-07T13:46:06.875Z,67.67
2023-03-07T13:51:14.602Z,69.01
2023-03-07T13:56:26.410Z,68.87
2023-03-07T14:01:34.276Z,68.95
2023-03-07T14:06:42.027Z,68.89
2023-03-07T14:11:53.301Z,69.70
2023-03-07T14:17:08.452Z,70.26
2023-03-07T14:22:25.295Z,70.36
2023-03-07T14:27:28.455Z,70.45
2023-03-07T14:32:35.483Z,71.41
2023-03-07T14:37:40.696Z,74.67
2023-03-07T14:42:52.942Z,74.77
2023-03-07T14:48:10.113Z,76.28
2023-03-07T14:53:20.438Z,78.35
2023-03-07T14:58:33.820Z,81.64
2023-03-07T15:03:36.816Z,81.44
2023-03-07T15:08:41.715Z,82.62
2023-03-07T15:13:48.004Z,83.70
2023-03-07T15:18:54.850Z,85.28
2023-03-07T15:23:59.796Z,86.30
2023-03-07T15:29:08.549Z,86.65
2023-03-07T15:34:21.651Z,87.44
2023-03-07T15:39:33.196Z,88.64
2023-03-07T15:44:39.795Z,89.38
2023-03-07T15:49:47.606Z,90.27
2023-03-07T15:54:54.852Z,90.70
2023-03-07T16:00:00.438Z,91.76
2023-03-07T16:05:06.253Z,92.24
2023-03-07T16:10:12.130Z,93.53
2023-03-07T16:15:17.222Z,93.91
2023-03-07T16:20:22.321Z,94.23
2023-03-07T16:25:30.799Z,95.16
2023-03-07T16:30:34.383Z,95.26
2023-03-07T16:35:37.662Z,96.17
2023-03-07T16:40:44.641Z,96.74
2023-03-07T16:45:48.347Z,97.22
2023-03-07T16:50:51.658Z,97.98
2023-03-07T16:56:00.042Z,98.47
2023-03-07T17:01:03.281Z,98.52
2023-03-07T17:06:08.803Z,98.58
2023-03-07T17:11:23.186Z,99.93
2023-03-07T17:16:30.362Z,99.59
2023-03-07T17:21:37.484Z,100.00
2023-03-07T17:26:44.648Z,100.00
2023-03-07T17:31:47.864Z,100.00
2023-03-07T17:36:51.292Z,100.00
2023-03-07T17:41:56.454Z,100.00
2023-03-07T17:47:00.563Z,100.00
2023-03-07T17:52:05.230Z,100.00
2023-03-07T17:57:09.782Z,100.00
2023-03-07T18:02:13.654Z,100.00
2023-03-07T18:07:18.342Z,100.00
2023-03-07T18:12:22.854Z,100.00
2023-03-07T18:17:26.970Z,100.00
2023-03-07T18:22:32.848Z,100.00
2023-03-07T18:27:37.668Z,100.00
2023-03-07T18:32:41.322Z,100.00
2023-03-07T18:37:45.526Z,100.00
2023-03-07T18:42:50.682Z,100.00
2023-03-07T18:47:54.794Z,100.00
2023-03-07T18:52:58.167Z,100.00
2023-03-07T18:58:10.729Z,100.00
2023-03-07T19:03:15.355Z,100.00
2023-03-07T19:08:18.793Z,100.00
2023-03-07T19:13:23.806Z,100.00
2023-03-07T19:18:27.098Z,100.00
2023-03-07T19:23:30.300Z,100.00
2023-03-07T19:28:35.819Z,100.00
2023-03-07T19:33:39.183Z,100.00
2023-03-07T19:38:42.890Z,100.00
2023-03-07T19:43:47.574Z,100.00
2023-03-07T19:48:51.059Z,100.00
2023-03-07T19:53:57.341Z,100.00
2023-03-07T19:59:03.544Z,100.00
2023-03-07T20:04:14.116Z,100.00
2023-03-07T20:09:17.545Z,100.00
2023-03-07T20:14:22.720Z,100.00
2023-03-07T20:19:26.044Z,100.00
2023-03-07T20:24:30.451Z,100.00
2023-03-07T20:29:34.993Z,100.00
2023-03-07T20:34:39.650Z,100.00
2023-03-07T20:39:43.857Z,100.00
2023-03-07T20:44:49.002Z,100.00
2023-03-07T20:49:52.156Z,100.00
2023-03-07T20:54:55.425Z,100.00
2023-03-07T21:00:00.522Z,100.00
2023-03-07T21:05:03.830Z,100.00
2023-03-07T21:10:07.753Z,100.00
2023-03-07T21:15:13.729Z,100.00
2023-03-07T21:20:18.550Z,100.00
2023-03-07T21:25:21.708Z,100.00
2023-03-07T21:30:26.346Z,100.00
2023-03-07T21:35:30.269Z,100.00
2023-03-07T21:40:33.770Z,100.00
2023-03-07T21:45:38.573Z,100.00
2023-03-07T21:50:43.431Z,100.00
2023-03-07T21:55:51.698Z,100.00
2023-03-07T22:00:56.989Z,100.00
2023-03-07T22:06:00.222Z,100.00
2023-03-07T22:11:05.437Z,100.00
2023-03-07T22:16:18.062Z,100.00
2023-03-07T22:21:23.468Z,100.00
2023-03-07T22:26:28.176Z,100.00
2023-03-07T22:31:32.832Z,100.00
2023-03-07T22:36:37.009Z,100.00
2023-03-07T22:41:40.156Z,100.00
2023-03-07T22:46:45.215Z,100.00
2023-03-07T22:51:48.526Z,100.00
2023-03-07T22:56:52.017Z,100.00
2023-03-07T23:01:56.491Z,100.00
2023-03-07T23:07:00.050Z,100.00
2023-03-07T23:12:03.280Z,100.00
2023-03-07T23:17:08.054Z,100.00
2023-03-07T23:22:11.553Z,100.00
2023-03-07T23:27:14.641Z,100.00
2023-03-07T23:32:19.308Z,100.00
2023-03-07T23:37:22.416Z,100.00
2023-03-07T23:42:25.595Z,100.00
2023-03-07T23:47:30.322Z,100.00
2023-03-07T23:52:33.719Z,100.00
2023-03-07T23:57:36.850Z,100.00
